createdAt,value
2022-08-09T00:01:10.297Z,1.23
2022-08-09T00:04:10.183Z,1.43
2022-08-09T00:06:34.490Z,1.33
2022-08-09T00:09:07.377Z,1.37
2022-08-09T00:11:58.483Z,1.23
2022-08-09T00:14:38.254Z,1.30
2022-08-09T00:17:10.283Z,1.40
2022-08-09T00:20:02.030Z,1.37
2022-08-09T00:22:36.421Z,1.53
2022-08-09T00:25:10.192Z,1.57
2022-08-09T00:27:44.507Z,1.37
2022-08-09T00:30:25.430Z,1.33
2022-08-09T00:32:58.514Z,1.60
2022-08-09T00:35:43.045Z,1.50
2022-08-09T00:38:16.089Z,1.30
2022-08-09T00:40:53.789Z,1.33
2022-08-09T00:44:11.421Z,1.40
2022-08-09T00:46:28.459Z,1.20
2022-08-09T00:49:11.194Z,1.40
2022-08-09T00:51:55.928Z,1.27
2022-08-09T00:54:35.413Z,1.20
2022-08-09T00:57:10.176Z,1.30
2022-08-09T00:59:46.854Z,1.20
2022-08-09T01:02:29.611Z,1.20
2022-08-09T01:05:22.418Z,1.13
2022-08-09T01:08:31.200Z,1.30
2022-08-09T01:11:23.795Z,1.23
2022-08-09T01:14:04.794Z,1.50
2022-08-09T01:16:40.985Z,1.30
2022-08-09T01:20:01.746Z,1.27
2022-08-09T01:22:52.070Z,1.00
2022-08-09T01:25:52.333Z,1.10
2022-08-09T01:28:25.376Z,1.67
2022-08-09T01:31:00.115Z,1.20
2022-08-09T01:33:38.396Z,1.30
2022-08-09T01:36:13.698Z,1.20
2022-08-09T01:38:48.293Z,1.10
2022-08-09T01:41:30.133Z,1.30
2022-08-09T01:44:05.926Z,0.97
2022-08-09T01:46:47.030Z,1.30
2022-08-09T01:49:21.233Z,1.30
2022-08-09T01:52:06.999Z,1.00
2022-08-09T01:54:49.073Z,1.30
2022-08-09T01:57:39.908Z,1.43
2022-08-09T02:00:35.001Z,1.40
2022-08-09T02:03:13.704Z,1.40
2022-08-09T02:06:03.617Z,1.30
2022-08-09T02:08:57.737Z,1.50
2022-08-09T02:11:42.001Z,1.20
2022-08-09T02:14:26.360Z,1.23
2022-08-09T02:17:15.075Z,1.30
2022-08-09T02:19:51.259Z,1.40
2022-08-09T02:22:45.677Z,1.40
2022-08-09T02:25:23.354Z,1.50
2022-08-09T02:28:10.008Z,1.50
2022-08-09T02:30:51.764Z,1.43
2022-08-09T02:33:38.257Z,1.30
2022-08-09T02:36:22.149Z,1.30
2022-08-09T02:39:04.426Z,1.40
2022-08-09T02:41:43.539Z,1.53
2022-08-09T02:44:29.489Z,1.60
2022-08-09T02:47:09.829Z,1.37
2022-08-09T02:50:02.657Z,1.07
2022-08-09T02:52:46.199Z,1.23
2022-08-09T02:55:22.989Z,1.63
2022-08-09T02:58:35.874Z,1.53
2022-08-09T03:01:11.257Z,1.37
2022-08-09T03:04:16.628Z,1.20
2022-08-09T03:06:42.582Z,1.30
2022-08-09T03:09:20.228Z,1.40
2022-08-09T03:12:10.734Z,1.53
2022-08-09T03:14:45.694Z,1.60
2022-08-09T03:17:26.357Z,1.40
2022-08-09T03:20:05.016Z,1.30
2022-08-09T03:22:44.944Z,1.63
2022-08-09T03:25:25.849Z,1.70
2022-08-09T03:28:11.219Z,1.50
2022-08-09T03:30:43.771Z,1.60
2022-08-09T03:33:19.031Z,1.67
2022-08-09T03:36:12.584Z,1.37
2022-08-09T03:38:44.933Z,1.80
2022-08-09T03:41:18.452Z,1.63
2022-08-09T03:44:03.098Z,1.70
2022-08-09T03:46:40.757Z,1.50
2022-08-09T03:49:17.534Z,1.70
2022-08-09T03:52:00.094Z,1.73
2022-08-09T03:54:38.537Z,1.60
2022-08-09T03:57:20.389Z,1.77
2022-08-09T03:59:56.015Z,1.40
2022-08-09T04:02:30.897Z,2.03
2022-08-09T04:05:06.627Z,1.53
2022-08-09T04:07:57.636Z,1.97
2022-08-09T04:10:30.486Z,1.80
2022-08-09T04:13:09.415Z,1.73
2022-08-09T04:16:20.516Z,1.67
2022-08-09T04:18:36.698Z,1.90
2022-08-09T04:21:10.152Z,1.80
2022-08-09T04:23:41.890Z,1.83
2022-08-09T04:26:35.102Z,1.70
2022-08-09T04:29:15.458Z,2.20
2022-08-09T04:31:47.747Z,1.73
2022-08-09T04:34:30.607Z,1.97
2022-08-09T04:37:04.136Z,1.70
2022-08-09T04:39:40.538Z,1.97
2022-08-09T04:42:15.863Z,1.57
2022-08-09T04:44:50.361Z,1.60
2022-08-09T04:47:26.034Z,1.80
2022-08-09T04:50:05.329Z,2.10
2022-08-09T04:52:42.219Z,1.60
2022-08-09T04:55:15.333Z,1.50
2022-08-09T04:57:58.887Z,1.47
2022-08-09T05:00:36.068Z,1.60
2022-08-09T05:03:30.665Z,1.50
2022-08-09T05:06:06.621Z,1.00
2022-08-09T05:08:39.300Z,1.20
2022-08-09T05:11:15.862Z,0.97
2022-08-09T05:13:48.599Z,1.30
2022-08-09T05:16:21.158Z,1.40
2022-08-09T05:19:04.119Z,1.38
2022-08-09T05:21:46.970Z,1.30
2022-08-09T05:24:19.212Z,1.30
2022-08-09T05:26:52.605Z,1.35
2022-08-09T05:29:31.382Z,1.23
2022-08-09T05:32:04.021Z,1.33
2022-08-09T05:34:37.689Z,1.25
2022-08-09T05:37:15.214Z,1.23
2022-08-09T05:39:47.495Z,1.30
2022-08-09T05:42:21.920Z,1.50
2022-08-09T05:45:00.498Z,1.23
2022-08-09T05:47:33.222Z,1.10
2022-08-09T05:50:31.775Z,1.27
2022-08-09T05:52:57.310Z,1.10
2022-08-09T05:55:31.258Z,1.10
2022-08-09T05:58:07.114Z,1.05
2022-08-09T06:00:39.141Z,0.93
2022-08-09T06:03:11.154Z,1.05
2022-08-09T06:06:04.449Z,1.40
2022-08-09T06:08:37.804Z,1.08
2022-08-09T06:11:16.695Z,1.27
2022-08-09T06:13:49.579Z,1.20
2022-08-09T06:16:23.322Z,1.17
2022-08-09T06:18:55.344Z,1.10
2022-08-09T06:21:27.134Z,1.50
2022-08-09T06:24:02.618Z,1.55
2022-08-09T06:26:35.807Z,1.60
2022-08-09T06:29:09.355Z,1.08
2022-08-09T06:32:09.010Z,0.98
2022-08-09T06:34:38.686Z,1.10
2022-08-09T06:37:10.654Z,1.10
2022-08-09T06:39:57.412Z,1.48
2022-08-09T06:42:33.625Z,1.15
2022-08-09T06:46:07.092Z,1.20
2022-08-09T06:48:00.803Z,1.20
2022-08-09T06:50:33.316Z,1.37
2022-08-09T06:53:05.637Z,1.40
2022-08-09T06:55:37.414Z,1.20
2022-08-09T06:58:40.880Z,1.27
2022-08-09T07:01:01.250Z,1.37
2022-08-09T07:03:39.689Z,1.10
2022-08-09T07:06:25.527Z,1.10
2022-08-09T07:08:59.797Z,1.20
2022-08-09T07:11:34.241Z,1.10
2022-08-09T07:14:26.400Z,1.30
2022-08-09T07:16:59.379Z,1.10
2022-08-09T07:19:32.481Z,1.20
2022-08-09T07:22:06.085Z,1.50
2022-08-09T07:24:40.288Z,1.10
2022-08-09T07:27:26.873Z,1.00
2022-08-09T07:30:06.793Z,1.00
2022-08-09T07:32:39.392Z,1.10
2022-08-09T07:35:14.694Z,1.23
2022-08-09T07:37:48.068Z,1.40
2022-08-09T07:40:26.831Z,1.20
2022-08-09T07:43:00.765Z,1.60
2022-08-09T07:45:40.393Z,1.53
2022-08-09T07:48:25.698Z,1.13
2022-08-09T07:51:10.141Z,1.00
2022-08-09T07:54:05.127Z,1.07
2022-08-09T07:56:45.093Z,1.23
2022-08-09T07:59:33.894Z,0.90
2022-08-09T08:02:16.671Z,1.10
2022-08-09T08:04:53.587Z,0.90
2022-08-09T08:08:44.112Z,1.30
2022-08-09T08:10:18.421Z,0.80
2022-08-09T08:12:50.448Z,1.27
2022-08-09T08:15:23.104Z,1.37
2022-08-09T08:17:58.106Z,1.20
2022-08-09T08:20:33.055Z,1.80
2022-08-09T08:23:16.913Z,1.00
2022-08-09T08:26:06.102Z,1.07
2022-08-09T08:28:38.546Z,1.17
2022-08-09T08:31:15.042Z,0.90
2022-08-09T08:33:52.337Z,1.30
2022-08-09T08:36:29.682Z,1.10
2022-08-09T08:39:03.563Z,1.13
2022-08-09T08:41:51.523Z,0.80
2022-08-09T08:44:28.832Z,0.93
2022-08-09T08:47:12.568Z,0.80
2022-08-09T08:49:48.325Z,1.10
2022-08-09T08:55:19.163Z,1.00
2022-08-09T08:57:56.311Z,0.93
2022-08-09T09:00:34.098Z,0.77
2022-08-09T09:03:11.199Z,0.50
2022-08-09T09:06:03.011Z,0.90
2022-08-09T09:08:40.700Z,1.00
2022-08-09T09:11:19.817Z,0.80
2022-08-09T09:13:56.159Z,0.80
2022-08-09T09:16:34.400Z,0.88
2022-08-09T09:19:40.727Z,1.00
2022-08-09T09:22:11.814Z,0.90
2022-08-09T09:24:49.335Z,0.60
2022-08-09T09:28:03.846Z,0.80
2022-08-09T09:30:38.632Z,0.60
2022-08-09T09:33:15.707Z,0.70
2022-08-09T09:36:02.846Z,0.50
2022-08-09T09:38:58.026Z,0.80
2022-08-09T09:41:49.426Z,0.70
2022-08-09T09:44:31.555Z,0.85
2022-08-09T09:47:16.682Z,0.90
2022-08-09T09:50:14.942Z,0.73
2022-08-09T09:52:56.247Z,0.88
2022-08-09T09:55:32.952Z,0.80
2022-08-09T09:58:15.840Z,0.82
2022-08-09T10:00:54.999Z,0.70
2022-08-09T10:03:43.437Z,0.90
2022-08-09T10:06:16.562Z,0.88
2022-08-09T10:08:54.745Z,0.88
2022-08-09T10:11:59.948Z,0.90
2022-08-09T10:14:32.974Z,1.00
2022-08-09T10:17:24.334Z,0.80
2022-08-09T10:20:27.386Z,0.93
2022-08-09T10:23:22.156Z,0.77
2022-08-09T10:26:05.973Z,0.80
2022-08-09T10:28:43.351Z,0.88
2022-08-09T10:34:32.373Z,0.80
2022-08-09T10:37:09.524Z,0.70
2022-08-09T10:39:49.241Z,0.80
2022-08-09T10:42:26.913Z,0.90
2022-08-09T10:45:04.281Z,0.60
2022-08-09T10:48:20.392Z,0.65
2022-08-09T10:51:15.103Z,0.80
2022-08-09T10:53:54.328Z,0.82
2022-08-09T10:56:27.804Z,0.80
2022-08-09T10:59:01.582Z,0.80
2022-08-09T11:03:14.429Z,0.80
2022-08-09T11:04:32.578Z,0.80
2022-08-09T11:07:04.717Z,0.70
2022-08-09T11:09:41.378Z,0.90
2022-08-09T11:12:30.469Z,0.80
2022-08-09T11:15:33.651Z,0.60
2022-08-09T11:18:06.185Z,0.80
2022-08-09T11:20:41.442Z,0.60
2022-08-09T11:23:15.328Z,0.60
2022-08-09T11:25:49.421Z,0.80
2022-08-09T11:28:53.951Z,1.17
2022-08-09T11:31:50.476Z,0.70
2022-08-09T11:34:35.232Z,0.88
2022-08-09T11:37:09.504Z,0.70
2022-08-09T11:40:01.799Z,0.82
2022-08-09T11:42:46.912Z,0.77
2022-08-09T11:45:41.934Z,1.05
2022-08-09T11:48:25.275Z,0.90
2022-08-09T11:52:53.833Z,0.85
2022-08-09T11:54:21.663Z,0.57
2022-08-09T11:57:47.865Z,0.70
2022-08-09T12:00:31.764Z,0.80
2022-08-09T12:03:50.250Z,0.70
2022-08-09T12:06:00.740Z,0.70
2022-08-09T12:08:32.957Z,0.80
2022-08-09T12:11:05.105Z,0.70
2022-08-09T12:14:07.507Z,0.80
2022-08-09T12:16:41.621Z,1.02
2022-08-09T12:19:14.705Z,1.20
2022-08-09T12:21:52.116Z,1.00
2022-08-09T12:24:25.312Z,0.90
2022-08-09T12:29:09.877Z,1.23
2022-08-09T12:29:56.327Z,2.00
2022-08-09T12:32:34.463Z,1.10
2022-08-09T12:35:12.409Z,0.80
2022-08-09T12:37:51.420Z,1.08
2022-08-09T12:40:27.290Z,2.00
2022-08-09T12:42:59.436Z,0.80
2022-08-09T12:45:33.738Z,1.05
2022-08-09T12:48:20.014Z,1.23
2022-08-09T12:51:03.897Z,0.80
2022-08-09T12:53:41.042Z,1.20
2022-08-09T12:56:39.285Z,1.10
2022-08-09T12:59:19.917Z,0.80
2022-08-09T13:02:09.398Z,1.10
2022-08-09T13:04:41.527Z,1.00
2022-08-09T13:07:16.518Z,0.82
2022-08-09T13:10:02.537Z,1.00
2022-08-09T13:12:39.771Z,1.13
2022-08-09T13:15:11.843Z,0.80
2022-08-09T13:18:04.979Z,1.40
2022-08-09T13:20:50.146Z,0.80
2022-08-09T13:24:42.045Z,0.70
2022-08-09T13:26:37.484Z,1.00
2022-08-09T13:29:18.034Z,0.70
2022-08-09T13:32:19.104Z,0.65
2022-08-09T13:34:53.108Z,0.95
2022-08-09T13:37:51.951Z,0.80
2022-08-09T13:41:51.142Z,0.57
2022-08-09T13:43:11.575Z,1.30
2022-08-09T13:46:42.482Z,0.90
2022-08-09T13:48:39.607Z,0.98
2022-08-09T13:51:14.101Z,1.05
2022-08-09T13:53:48.319Z,1.52
2022-08-09T13:56:20.888Z,0.75
2022-08-09T13:58:57.344Z,0.90
2022-08-09T14:02:00.444Z,1.10
2022-08-09T14:04:23.934Z,0.88
2022-08-09T14:07:00.520Z,0.57
2022-08-09T14:09:35.762Z,0.75
2022-08-09T14:12:15.758Z,0.70
2022-08-09T14:14:53.549Z,0.80
2022-08-09T14:17:25.994Z,0.80
2022-08-09T14:20:05.232Z,0.80
2022-08-09T14:22:38.048Z,0.68
2022-08-09T14:25:10.139Z,0.80
2022-08-09T14:27:57.209Z,1.10
2022-08-09T14:30:36.833Z,0.90
2022-08-09T14:33:13.288Z,0.75
2022-08-09T14:35:53.353Z,0.80
2022-08-09T14:38:25.288Z,0.80
2022-08-09T14:41:04.478Z,0.68
2022-08-09T14:43:53.738Z,0.77
2022-08-09T14:46:54.551Z,0.70
2022-08-09T14:49:18.480Z,0.80
2022-08-09T14:51:58.893Z,0.80
2022-08-09T14:54:30.989Z,1.00
2022-08-09T14:57:05.911Z,0.70
2022-08-09T14:59:38.727Z,0.73
2022-08-09T15:02:11.372Z,0.80
2022-08-09T15:04:45.234Z,0.63
2022-08-09T15:07:19.734Z,0.93
2022-08-09T15:10:10.353Z,0.82
2022-08-09T15:12:44.830Z,0.80
2022-08-09T15:15:17.104Z,0.85
2022-08-09T15:17:52.538Z,0.82
2022-08-09T15:21:58.873Z,0.68
2022-08-09T15:24:01.169Z,0.65
2022-08-09T15:26:18.837Z,0.60
2022-08-09T15:29:04.464Z,0.65
2022-08-09T15:31:40.787Z,0.77
2022-08-09T15:34:31.718Z,0.80
2022-08-09T15:37:37.226Z,0.88
2022-08-09T15:40:19.986Z,0.73
2022-08-09T15:42:52.670Z,0.73
2022-08-09T15:45:29.579Z,0.60
2022-08-09T15:48:05.248Z,0.63
2022-08-09T15:50:39.566Z,0.80
2022-08-09T15:54:02.125Z,0.70
2022-08-09T15:56:29.274Z,0.57
2022-08-09T15:58:59.401Z,0.80
2022-08-09T16:01:35.503Z,0.90
2022-08-09T16:04:13.623Z,0.70
2022-08-09T16:06:50.463Z,0.73
2022-08-09T16:09:32.457Z,0.70
2022-08-09T16:12:15.721Z,0.68
2022-08-09T16:14:47.640Z,0.73
2022-08-09T16:17:19.709Z,0.80
2022-08-09T16:20:04.901Z,0.60
2022-08-09T16:22:42.117Z,0.65
2022-08-09T16:25:14.454Z,1.05
2022-08-09T16:27:47.938Z,0.80
2022-08-09T16:30:28.463Z,0.73
2022-08-09T16:33:11.218Z,0.73
2022-08-09T16:35:56.438Z,1.02
2022-08-09T16:38:30.293Z,0.90
2022-08-09T16:41:04.033Z,0.60
2022-08-09T16:43:40.605Z,0.75
2022-08-09T16:46:13.994Z,0.80
2022-08-09T16:48:56.927Z,0.90
2022-08-09T16:51:34.893Z,0.70
2022-08-09T16:54:34.607Z,0.80
2022-08-09T16:56:58.946Z,0.70
2022-08-09T16:59:34.807Z,0.60
2022-08-09T17:02:07.279Z,0.73
2022-08-09T17:04:39.645Z,0.68
2022-08-09T17:08:46.594Z,1.02
2022-08-09T17:10:06.753Z,0.73
2022-08-09T17:12:41.621Z,0.95
2022-08-09T17:15:30.739Z,0.80
2022-08-09T17:18:05.315Z,0.77
2022-08-09T17:20:42.268Z,1.00
2022-08-09T17:23:18.699Z,0.90
2022-08-09T17:25:53.088Z,0.80
2022-08-09T17:28:25.117Z,0.80
2022-08-09T17:30:58.727Z,0.97
2022-08-09T17:33:35.747Z,0.90
2022-08-09T17:36:14.671Z,0.90
2022-08-09T17:38:57.812Z,1.10
2022-08-09T17:41:38.880Z,0.93
2022-08-09T17:44:42.401Z,1.25
2022-08-09T17:47:05.970Z,0.70
2022-08-09T17:49:50.614Z,0.70
2022-08-09T17:52:23.540Z,0.70
2022-08-09T17:54:55.389Z,1.00
2022-08-09T17:58:03.303Z,1.00
2022-08-09T18:00:20.410Z,0.93
2022-08-09T18:03:07.011Z,0.87
2022-08-09T18:05:43.880Z,0.80
2022-08-09T18:08:16.223Z,0.87
2022-08-09T18:11:02.315Z,0.87
2022-08-09T18:13:43.018Z,0.63
2022-08-09T18:16:29.526Z,0.80
2022-08-09T18:19:04.259Z,1.03
2022-08-09T18:21:54.809Z,0.70
2022-08-09T18:24:27.631Z,0.70
2022-08-09T18:27:01.082Z,0.70
2022-08-09T18:30:40.544Z,0.63
2022-08-09T18:32:24.920Z,0.70
2022-08-09T18:34:58.542Z,0.80
2022-08-09T18:37:49.110Z,0.80
2022-08-09T18:40:26.832Z,1.20
2022-08-09T18:42:58.937Z,0.97
2022-08-09T18:46:48.660Z,0.80
2022-08-09T18:48:25.522Z,0.97
2022-08-09T18:51:02.003Z,1.13
2022-08-09T18:53:55.860Z,0.80
2022-08-09T18:56:27.831Z,1.00
2022-08-09T18:59:01.362Z,0.90
2022-08-09T19:01:43.565Z,0.90
2022-08-09T19:04:18.181Z,1.03
2022-08-09T19:07:06.644Z,0.97
2022-08-09T19:10:14.709Z,0.73
2022-08-09T19:12:31.844Z,0.70
2022-08-09T19:15:06.473Z,0.70
2022-08-09T19:17:54.985Z,0.63
2022-08-09T19:20:33.887Z,0.70
2022-08-09T19:23:16.600Z,0.80
2022-08-09T19:26:02.261Z,0.80
2022-08-09T19:28:38.235Z,1.00
2022-08-09T19:31:14.398Z,0.70
2022-08-09T19:33:48.489Z,0.80
2022-08-09T19:36:23.192Z,0.93
2022-08-09T19:39:05.345Z,1.10
2022-08-09T19:41:37.512Z,0.80
2022-08-09T19:44:14.315Z,0.93
2022-08-09T19:46:50.595Z,1.00
2022-08-09T19:50:08.235Z,1.80
2022-08-09T19:52:25.693Z,1.43
2022-08-09T19:54:59.036Z,1.20
2022-08-09T19:57:30.831Z,1.03
2022-08-09T20:00:07.506Z,1.10
2022-08-09T20:04:07.296Z,0.90
2022-08-09T20:05:46.905Z,1.03
2022-08-09T20:08:25.079Z,1.07
2022-08-09T20:11:06.474Z,1.10
2022-08-09T20:13:38.696Z,1.00
2022-08-09T20:16:35.051Z,1.20
2022-08-09T20:19:42.580Z,1.10
2022-08-09T20:21:57.321Z,1.60
2022-08-09T20:24:33.917Z,1.40
2022-08-09T20:27:08.220Z,1.33
2022-08-09T20:29:40.513Z,1.20
2022-08-09T20:32:30.066Z,1.23
2022-08-09T20:35:06.076Z,1.20
2022-08-09T20:38:20.350Z,1.73
2022-08-09T20:40:30.735Z,1.10
2022-08-09T20:43:18.356Z,1.47
2022-08-09T20:46:01.309Z,1.40
2022-08-09T20:48:46.155Z,1.40
2022-08-09T20:51:25.484Z,1.30
2022-08-09T20:53:57.227Z,1.10
2022-08-09T20:56:28.960Z,1.30
2022-08-09T20:59:02.766Z,1.00
2022-08-09T21:01:50.903Z,1.20
2022-08-09T21:05:56.298Z,1.57
2022-08-09T21:07:17.756Z,1.60
2022-08-09T21:09:56.851Z,1.30
2022-08-09T21:15:31.495Z,1.33
2022-08-09T21:18:22.819Z,1.20
2022-08-09T21:20:57.709Z,1.33
2022-08-09T21:23:47.786Z,1.40
2022-08-09T21:26:21.998Z,1.20
2022-08-09T21:28:57.157Z,1.27
2022-08-09T21:31:48.948Z,1.30
2022-08-09T21:34:29.321Z,0.93
2022-08-09T21:37:01.378Z,1.37
2022-08-09T21:39:42.174Z,1.30
2022-08-09T21:42:14.742Z,1.33
2022-08-09T21:44:46.564Z,1.60
2022-08-09T21:47:20.057Z,1.57
2022-08-09T21:49:52.110Z,1.20
2022-08-09T21:52:24.067Z,1.50
2022-08-09T21:55:03.384Z,1.23
2022-08-09T21:57:58.883Z,1.20
2022-08-09T22:00:32.822Z,1.17
2022-08-09T22:03:07.705Z,0.90
2022-08-09T22:05:52.154Z,1.40
2022-08-09T22:08:28.020Z,1.40
2022-08-09T22:11:50.318Z,1.23
2022-08-09T22:13:52.622Z,1.20
2022-08-09T22:16:24.485Z,2.07
2022-08-09T22:18:56.903Z,1.17
2022-08-09T22:21:45.337Z,1.10
2022-08-09T22:24:24.799Z,1.30
2022-08-09T22:26:56.844Z,1.00
2022-08-09T22:29:38.510Z,1.23
2022-08-09T22:32:30.155Z,1.20
2022-08-09T22:35:06.091Z,1.00
2022-08-09T22:37:40.319Z,1.20
2022-08-09T22:40:18.262Z,1.40
2022-08-09T22:42:52.194Z,1.30
2022-08-09T22:48:18.407Z,1.10
2022-08-09T22:48:34.816Z,1.23
2022-08-09T22:51:10.958Z,1.07
2022-08-09T22:54:02.026Z,1.40
2022-08-09T22:56:35.226Z,1.10
2022-08-09T22:59:56.049Z,1.17
2022-08-09T23:01:59.620Z,1.30
2022-08-09T23:04:32.781Z,1.03
2022-08-09T23:08:21.114Z,1.20
2022-08-09T23:10:14.918Z,1.30
2022-08-09T23:12:47.342Z,1.30
2022-08-09T23:15:19.086Z,1.40
2022-08-09T23:17:50.930Z,1.40
2022-08-09T23:20:23.858Z,1.50
2022-08-09T23:22:55.855Z,1.43
2022-08-09T23:25:27.659Z,1.40
2022-08-09T23:28:14.686Z,1.30
2022-08-09T23:30:52.123Z,1.10
2022-08-09T23:33:24.781Z,1.00
2022-08-09T23:36:04.731Z,1.40
2022-08-09T23:38:48.503Z,1.13
2022-08-09T23:41:28.802Z,1.40
2022-08-09T23:44:03.133Z,1.20
2022-08-09T23:46:34.928Z,1.10
2022-08-09T23:49:06.761Z,1.30
2022-08-09T23:51:38.537Z,1.50
2022-08-09T23:54:10.308Z,1.40
2022-08-09T23:56:54.860Z,1.10
2022-08-09T23:59:47.523Z,1.20
